createdAt,value
2023-11-08T00:01:48.120Z,101256.03
2023-11-08T00:04:15.588Z,101262.25
2023-11-08T00:06:43.751Z,101256.88
2023-11-08T00:09:13.665Z,101260.53
2023-11-08T00:11:42.286Z,101261.41
2023-11-08T00:14:11.394Z,101260.53
2023-11-08T00:16:38.812Z,101261.41
2023-11-08T00:19:08.884Z,101265.91
2023-11-08T00:21:36.777Z,101264.09
2023-11-08T00:24:04.374Z,101264.19
2023-11-08T00:26:31.756Z,101259.69
2023-11-08T00:28:59.103Z,101262.38
2023-11-08T00:31:26.574Z,101262.47
2023-11-08T00:33:54.036Z,101264.19
2023-11-08T00:36:21.857Z,101267.00
2023-11-08T00:38:49.346Z,101263.47
2023-11-08T00:41:16.806Z,101260.78
2023-11-08T00:43:44.229Z,101264.47
2023-11-08T00:46:11.721Z,101258.19
2023-11-08T00:48:39.799Z,101255.50
2023-11-08T00:51:07.285Z,101261.78
2023-11-08T00:53:34.670Z,101257.31
2023-11-08T00:56:02.349Z,101261.84
2023-11-08T00:58:30.767Z,101257.31
2023-11-08T01:00:58.119Z,101264.66
2023-11-08T01:03:25.994Z,101262.81
2023-11-08T01:05:53.470Z,101261.97
2023-11-08T01:08:20.852Z,101263.69
2023-11-08T01:10:50.175Z,101263.81
2023-11-08T01:13:17.595Z,101269.28
2023-11-08T01:15:45.312Z,101268.34
2023-11-08T01:18:13.091Z,101275.50
2023-11-08T01:20:42.636Z,101275.63
2023-11-08T01:23:11.078Z,101276.50
2023-11-08T01:25:38.468Z,101265.75
2023-11-08T01:28:05.877Z,101269.41
2023-11-08T01:30:34.267Z,101269.41
2023-11-08T01:33:01.689Z,101263.06
2023-11-08T01:35:29.225Z,101262.22
2023-11-08T01:37:56.610Z,101260.50
2023-11-08T01:40:23.985Z,101254.28
2023-11-08T01:42:51.347Z,101252.56
2023-11-08T01:45:19.749Z,101261.50
2023-11-08T01:47:48.591Z,101256.13
2023-11-08T01:50:16.694Z,101260.63
2023-11-08T01:52:44.757Z,101256.22
2023-11-08T01:55:12.158Z,101257.06
2023-11-08T01:57:41.200Z,101258.91
2023-11-08T02:00:10.206Z,101254.53
2023-11-08T02:02:45.918Z,101263.44
2023-11-08T02:05:13.513Z,101260.88
2023-11-08T02:07:40.936Z,101262.72
2023-11-08T02:10:10.164Z,101267.09
2023-11-08T02:12:39.073Z,101266.25
2023-11-08T02:15:07.339Z,101261.00
2023-11-08T02:17:34.783Z,101261.00
2023-11-08T02:20:05.018Z,101252.84
2023-11-08T02:22:32.556Z,101260.13
2023-11-08T02:25:00.513Z,101262.72
2023-11-08T02:27:27.974Z,101252.09
2023-11-08T02:29:55.344Z,101259.16
2023-11-08T02:32:22.662Z,101258.31
2023-11-08T02:34:50.305Z,101258.44
2023-11-08T02:37:17.688Z,101259.41
2023-11-08T02:39:45.119Z,101250.50
2023-11-08T02:42:13.028Z,101254.06
2023-11-08T02:44:40.481Z,101244.16
2023-11-08T02:47:07.830Z,101256.75
2023-11-08T02:49:35.343Z,101267.34
2023-11-08T02:52:02.713Z,101257.59
2023-11-08T02:54:30.153Z,101260.28
2023-11-08T02:56:57.660Z,101259.53
2023-11-08T02:59:25.092Z,101259.53
2023-11-08T03:01:53.234Z,101262.22
2023-11-08T03:04:21.498Z,101272.00
2023-11-08T03:06:49.005Z,101274.69
2023-11-08T03:09:16.687Z,101278.31
2023-11-08T03:11:44.074Z,101274.78
2023-11-08T03:14:11.427Z,101277.47
2023-11-08T03:16:38.852Z,101278.31
2023-11-08T03:19:10.270Z,101283.81
2023-11-08T03:21:38.595Z,101281.00
2023-11-08T03:24:06.464Z,101282.00
2023-11-08T03:26:34.381Z,101282.97
2023-11-08T03:29:01.888Z,101289.31
2023-11-08T03:31:30.828Z,101296.41
2023-11-08T03:33:59.632Z,101294.69
2023-11-08T03:36:27.346Z,101292.97
2023-11-08T03:38:57.793Z,101284.91
2023-11-08T03:41:26.322Z,101292.00
2023-11-08T03:43:54.129Z,101304.56
2023-11-08T03:46:22.332Z,101301.16
2023-11-08T03:48:54.421Z,101291.25
2023-11-08T03:51:22.041Z,101292.25
2023-11-08T03:53:49.464Z,101289.56
2023-11-08T03:56:17.669Z,101300.16
2023-11-08T03:58:45.264Z,101293.94
2023-11-08T04:01:12.642Z,101302.13
2023-11-08T04:03:40.204Z,101304.81
2023-11-08T04:06:07.584Z,101306.53
2023-11-08T04:08:35.587Z,101310.06
2023-11-08T04:11:03.030Z,101304.81
2023-11-08T04:13:30.394Z,101306.66
2023-11-08T04:15:57.682Z,101309.34
2023-11-08T04:18:25.345Z,101317.38
2023-11-08T04:20:52.716Z,101316.50
2023-11-08T04:23:19.968Z,101308.44
2023-11-08T04:25:50.851Z,101305.78
2023-11-08T04:28:21.587Z,101307.59
2023-11-08T04:30:48.946Z,101309.34
2023-11-08T04:33:16.565Z,101309.44
2023-11-08T04:35:43.922Z,101321.88
2023-11-08T04:38:11.939Z,101314.81
2023-11-08T04:40:39.298Z,101313.97
2023-11-08T04:43:07.329Z,101310.41
2023-11-08T04:45:34.795Z,101315.78
2023-11-08T04:48:02.153Z,101310.41
2023-11-08T04:50:29.600Z,101305.06
2023-11-08T04:52:56.953Z,101312.13
2023-11-08T04:55:24.426Z,101313.09
2023-11-08T04:57:52.306Z,101312.25
2023-11-08T05:00:19.774Z,101312.25
2023-11-08T05:02:47.113Z,101309.56
2023-11-08T05:05:16.192Z,101317.63
2023-11-08T05:07:48.133Z,101307.88
2023-11-08T05:10:15.683Z,101314.09
2023-11-08T05:12:43.102Z,101315.91
2023-11-08T05:15:10.744Z,101315.91
2023-11-08T05:17:39.301Z,101326.66
2023-11-08T05:20:07.765Z,101320.41
2023-11-08T05:22:35.582Z,101319.56
2023-11-08T05:25:03.013Z,101331.28
2023-11-08T05:27:30.383Z,101334.81
2023-11-08T05:29:57.765Z,101343.72
2023-11-08T05:32:25.744Z,101347.38
2023-11-08T05:34:53.143Z,101344.69
2023-11-08T05:37:20.422Z,101349.94
2023-11-08T05:39:48.597Z,101355.22
2023-11-08T05:42:17.451Z,101352.53
2023-11-08T05:44:44.828Z,101350.81
2023-11-08T05:47:12.439Z,101349.00
2023-11-08T05:49:39.784Z,101342.78
2023-11-08T05:52:07.267Z,101349.94
2023-11-08T05:54:34.598Z,101355.31
2023-11-08T05:57:02.735Z,101347.38
2023-11-08T05:59:30.073Z,101362.50
2023-11-08T06:01:57.367Z,101367.16
2023-11-08T06:04:24.661Z,101371.53
2023-11-08T06:06:52.125Z,101370.69
2023-11-08T06:09:19.966Z,101378.75
2023-11-08T06:11:47.473Z,101384.13
2023-11-08T06:14:14.842Z,101384.13
2023-11-08T06:16:43.184Z,101390.56
2023-11-08T06:19:11.292Z,101388.63
2023-11-08T06:21:38.904Z,101381.56
2023-11-08T06:24:06.990Z,101385.19
2023-11-08T06:26:34.336Z,101388.72
2023-11-08T06:29:01.659Z,101398.53
2023-11-08T06:31:35.895Z,101401.31
2023-11-08T06:34:04.479Z,101401.44
2023-11-08T06:36:32.345Z,101402.28
2023-11-08T06:38:59.785Z,101406.66
2023-11-08T06:41:28.194Z,101401.31
2023-11-08T06:43:55.799Z,101413.88
2023-11-08T06:46:23.155Z,101418.41
2023-11-08T06:48:51.265Z,101429.13
2023-11-08T06:51:18.640Z,101437.19
2023-11-08T06:53:46.777Z,101438.03
2023-11-08T06:56:14.503Z,101436.34
2023-11-08T06:58:41.934Z,101444.38
2023-11-08T07:01:12.192Z,101437.19
2023-11-08T07:03:41.179Z,101441.69
2023-11-08T07:06:08.683Z,101446.09
2023-11-08T07:08:36.473Z,101447.91
2023-11-08T07:11:04.037Z,101449.63
2023-11-08T07:13:31.323Z,101460.38
2023-11-08T07:16:00.737Z,101458.53
2023-11-08T07:18:28.419Z,101454.16
2023-11-08T07:20:55.917Z,101467.56
2023-11-08T07:23:26.833Z,101460.38
2023-11-08T07:25:55.840Z,101455.84
2023-11-08T07:28:23.329Z,101468.41
2023-11-08T07:30:50.741Z,101469.28
2023-11-08T07:33:19.237Z,101468.41
2023-11-08T07:35:47.536Z,101478.31
2023-11-08T07:38:16.283Z,101481.84
2023-11-08T07:40:43.739Z,101489.88
2023-11-08T07:43:11.154Z,101489.78
2023-11-08T07:45:38.573Z,101486.25
2023-11-08T07:48:07.324Z,101480.91
2023-11-08T07:50:35.440Z,101483.56
2023-11-08T07:53:02.755Z,101482.59
2023-11-08T07:55:30.165Z,101491.63
2023-11-08T07:57:57.585Z,101489.78
2023-11-08T08:00:25.512Z,101505.06
2023-11-08T08:02:53.244Z,101498.69
2023-11-08T08:05:21.252Z,101496.88
2023-11-08T08:07:50.009Z,101501.25
2023-11-08T08:10:17.449Z,101499.44
2023-11-08T08:12:48.418Z,101509.22
2023-11-08T08:15:18.087Z,101507.47
2023-11-08T08:17:47.131Z,101512.84
2023-11-08T08:20:15.094Z,101511.91
2023-11-08T08:22:42.499Z,101517.28
2023-11-08T08:25:12.836Z,101518.00
2023-11-08T08:27:44.180Z,101524.34
2023-11-08T08:30:15.384Z,101525.19
2023-11-08T08:32:46.322Z,101525.19
2023-11-08T08:35:14.694Z,101536.78
2023-11-08T08:37:42.581Z,101542.16
2023-11-08T08:40:13.470Z,101544.72
2023-11-08T08:42:42.107Z,101548.38
2023-11-08T08:45:10.254Z,101543.88
2023-11-08T08:47:44.392Z,101546.56
2023-11-08T08:50:14.200Z,101549.25
2023-11-08T08:52:42.832Z,101547.41
2023-11-08T08:55:10.343Z,101542.91
2023-11-08T08:57:38.202Z,101554.38
2023-11-08T09:00:08.974Z,101545.59
2023-11-08T09:02:37.925Z,101549.13
2023-11-08T09:05:06.977Z,101549.13
2023-11-08T09:07:34.281Z,101548.16
2023-11-08T09:10:01.972Z,101557.06
2023-11-08T09:12:29.445Z,101562.44
2023-11-08T09:14:56.783Z,101558.91
2023-11-08T09:17:24.483Z,101553.41
2023-11-08T09:19:54.782Z,101550.72
2023-11-08T09:22:24.048Z,101553.41
2023-11-08T09:24:51.336Z,101552.47
2023-11-08T09:27:20.073Z,101559.63
2023-11-08T09:29:47.412Z,101547.94
2023-11-08T09:32:14.835Z,101551.47
2023-11-08T09:34:42.619Z,101548.78
2023-11-08T09:37:12.207Z,101552.47
2023-11-08T09:39:39.712Z,101552.47
2023-11-08T09:42:07.592Z,101558.78
2023-11-08T09:44:36.529Z,101557.91
2023-11-08T09:47:05.546Z,101559.75
2023-11-08T09:49:35.603Z,101563.19
2023-11-08T09:52:03.278Z,101558.78
2023-11-08T09:54:30.764Z,101564.06
2023-11-08T09:57:00.254Z,101568.44
2023-11-08T09:59:30.466Z,101576.16
2023-11-08T10:01:59.615Z,101568.72
2023-11-08T10:04:32.447Z,101566.75
2023-11-08T10:07:03.262Z,101569.44
2023-11-08T10:09:33.241Z,101567.88
2023-11-08T10:12:00.991Z,101570.66
2023-11-08T10:14:40.965Z,101566.38
2023-11-08T10:17:30.831Z,101567.25
2023-11-08T10:19:58.570Z,101555.75
2023-11-08T10:22:27.521Z,101561.25
2023-11-08T10:25:01.498Z,101558.50
2023-11-08T10:27:30.553Z,101564.72
2023-11-08T10:30:13.582Z,101555.22
2023-11-08T10:32:41.035Z,101558.88
2023-11-08T10:35:22.843Z,101563.81
2023-11-08T10:37:50.881Z,101562.66
2023-11-08T10:40:19.169Z,101554.94
2023-11-08T10:42:54.105Z,101556.44
2023-11-08T10:45:22.382Z,101556.09
2023-11-08T10:47:50.019Z,101552.03
2023-11-08T10:50:19.238Z,101550.72
2023-11-08T10:52:49.992Z,101544.19
2023-11-08T10:55:17.558Z,101543.88
2023-11-08T10:57:54.122Z,101528.41
2023-11-08T11:00:24.152Z,101527.34
2023-11-08T11:03:06.773Z,101525.28
2023-11-08T11:05:38.017Z,101525.28
2023-11-08T11:08:07.374Z,101524.09
2023-11-08T11:10:34.818Z,101523.75
2023-11-08T11:13:13.044Z,101525.38
2023-11-08T11:15:47.858Z,101530.50
2023-11-08T11:18:20.033Z,101526.63
2023-11-08T11:21:00.641Z,101527.25
2023-11-08T11:23:36.363Z,101526.19
2023-11-08T11:26:05.556Z,101516.28
2023-11-08T11:28:56.929Z,101523.16
2023-11-08T11:31:37.377Z,101518.63
2023-11-08T11:34:27.775Z,101516.72
2023-11-08T11:37:07.798Z,101516.72
2023-11-08T11:39:36.303Z,101527.31
2023-11-08T11:42:09.103Z,101521.94
2023-11-08T11:44:45.089Z,101516.44
2023-11-08T11:47:19.785Z,101526.25
2023-11-08T11:49:52.655Z,101529.78
2023-11-08T11:52:21.892Z,101518.19
2023-11-08T11:54:50.920Z,101518.91
2023-11-08T11:57:20.680Z,101522.44
2023-11-08T11:59:49.711Z,101528.69
2023-11-08T12:02:17.782Z,101519.78
2023-11-08T12:04:47.274Z,101515.16
2023-11-08T12:07:16.920Z,101514.31
2023-11-08T12:09:48.470Z,101510.66
2023-11-08T12:12:36.601Z,101499.91
2023-11-08T12:15:17.224Z,101506.13
2023-11-08T12:17:52.390Z,101497.94
2023-11-08T12:20:28.032Z,101500.63
2023-11-08T12:22:55.700Z,101491.63
2023-11-08T12:25:23.342Z,101495.16
2023-11-08T12:27:55.143Z,101505.06
2023-11-08T12:30:25.366Z,101503.22
2023-11-08T12:32:52.984Z,101496.03
2023-11-08T12:35:21.905Z,101503.22
2023-11-08T12:37:49.319Z,101501.38
2023-11-08T12:40:21.412Z,101500.28
2023-11-08T12:42:49.744Z,101502.97
2023-11-08T12:46:33.817Z,101498.56
2023-11-08T12:48:18.137Z,101498.56
2023-11-08T12:50:50.960Z,101502.13
2023-11-08T12:53:18.472Z,101492.34
2023-11-08T12:55:45.771Z,101493.13
2023-11-08T12:58:23.090Z,101485.06
2023-11-08T13:00:50.429Z,101491.28
2023-11-08T13:03:22.090Z,101492.13
2023-11-08T13:05:51.178Z,101480.53
2023-11-08T13:08:19.380Z,101481.41
2023-11-08T13:10:46.946Z,101482.25
2023-11-08T13:13:15.424Z,101481.25
2023-11-08T13:15:43.631Z,101483.09
2023-11-08T13:18:12.294Z,101483.09
2023-11-08T13:20:40.104Z,101472.34
2023-11-08T13:23:19.539Z,101477.72
2023-11-08T13:25:55.005Z,101481.25
2023-11-08T13:28:22.493Z,101483.09
2023-11-08T13:30:52.988Z,101481.25
2023-11-08T13:33:25.680Z,101478.47
2023-11-08T13:35:53.377Z,101480.41
2023-11-08T13:38:20.607Z,101478.56
2023-11-08T13:40:47.979Z,101469.53
2023-11-08T13:43:15.332Z,101478.47
2023-11-08T13:45:43.054Z,101474.91
2023-11-08T13:48:10.654Z,101475.78
2023-11-08T13:50:38.812Z,101479.34
2023-11-08T13:53:06.169Z,101479.44
2023-11-08T13:55:33.571Z,101472.22
2023-11-08T13:58:01.028Z,101470.44
2023-11-08T14:00:28.427Z,101469.53
2023-11-08T14:02:55.808Z,101467.75
2023-11-08T14:05:23.305Z,101475.78
2023-11-08T14:07:50.989Z,101471.28
2023-11-08T14:10:18.418Z,101471.28
2023-11-08T14:12:45.923Z,101473.97
2023-11-08T14:15:13.537Z,101467.75
2023-11-08T14:17:41.036Z,101478.34
2023-11-08T14:20:09.498Z,101475.66
2023-11-08T14:22:38.856Z,101472.97
2023-11-08T14:25:08.233Z,101465.91
2023-11-08T14:27:35.616Z,101471.28
2023-11-08T14:30:03.438Z,101475.78
2023-11-08T14:32:30.709Z,101480.19
2023-11-08T14:34:58.151Z,101481.16
2023-11-08T14:37:26.366Z,101476.66
2023-11-08T14:39:54.215Z,101482.03
2023-11-08T14:42:23.605Z,101472.13
2023-11-08T14:44:50.999Z,101487.38
2023-11-08T14:47:21.962Z,101482.03
2023-11-08T14:49:49.869Z,101479.34
2023-11-08T14:52:17.960Z,101482.88
2023-11-08T14:54:49.048Z,101473.97
2023-11-08T14:57:16.809Z,101477.50
2023-11-08T14:59:44.653Z,101472.97
2023-11-08T15:02:12.521Z,101481.16
2023-11-08T15:04:40.007Z,101481.03
2023-11-08T15:07:10.189Z,101468.59
2023-11-08T15:10:00.096Z,101475.66
2023-11-08T15:12:29.034Z,101467.75
2023-11-08T15:14:56.649Z,101467.75
2023-11-08T15:17:24.163Z,101465.91
2023-11-08T15:19:51.647Z,101461.50
2023-11-08T15:22:19.344Z,101465.06
2023-11-08T15:24:50.821Z,101466.75
2023-11-08T15:27:18.728Z,101465.91
2023-11-08T15:29:46.381Z,101464.19
2023-11-08T15:32:13.775Z,101462.38
2023-11-08T15:34:41.232Z,101456.13
2023-11-08T15:37:09.174Z,101450.75
2023-11-08T15:39:36.876Z,101457.94
2023-11-08T15:42:04.565Z,101450.66
2023-11-08T15:44:32.046Z,101445.38
2023-11-08T15:46:59.418Z,101455.16
2023-11-08T15:49:27.037Z,101453.44
2023-11-08T15:51:54.570Z,101450.66
2023-11-08T15:54:21.897Z,101453.44
2023-11-08T15:56:49.146Z,101458.81
2023-11-08T15:59:16.570Z,101453.44
2023-11-08T16:01:47.064Z,101459.69
2023-11-08T16:04:14.658Z,101461.63
2023-11-08T16:06:42.251Z,101461.50
2023-11-08T16:09:11.049Z,101463.31
2023-11-08T16:11:40.986Z,101466.00
2023-11-08T16:14:08.861Z,101459.78
2023-11-08T16:16:43.461Z,101461.63
2023-11-08T16:19:11.731Z,101464.31
2023-11-08T16:21:39.719Z,101467.00
2023-11-08T16:24:08.417Z,101466.13
2023-11-08T16:26:35.837Z,101472.34
2023-11-08T16:29:09.770Z,101469.66
2023-11-08T16:32:32.918Z,101469.81
2023-11-08T16:34:38.138Z,101469.81
2023-11-08T16:37:05.622Z,101470.66
2023-11-08T16:39:32.959Z,101468.81
2023-11-08T16:42:00.313Z,101477.72
2023-11-08T16:44:27.590Z,101472.34
2023-11-08T16:46:56.485Z,101474.06
2023-11-08T16:49:23.928Z,101475.78
2023-11-08T16:51:51.317Z,101469.66
2023-11-08T16:54:18.923Z,101475.03
2023-11-08T16:56:46.360Z,101471.50
2023-11-08T16:59:13.890Z,101472.34
2023-11-08T17:01:42.812Z,101474.31
2023-11-08T17:04:10.409Z,101473.34
2023-11-08T17:06:42.515Z,101474.19
2023-11-08T17:09:10.072Z,101473.34
2023-11-08T17:11:38.486Z,101473.34
2023-11-08T17:14:06.036Z,101480.53
2023-11-08T17:16:33.705Z,101478.72
2023-11-08T17:19:01.666Z,101470.75
2023-11-08T17:21:32.775Z,101485.91
2023-11-08T17:24:00.839Z,101477.94
2023-11-08T17:26:28.199Z,101482.38
2023-11-08T17:28:55.699Z,101485.78
2023-11-08T17:31:23.301Z,101491.16
2023-11-08T17:33:50.912Z,101502.66
2023-11-08T17:36:18.504Z,101500.91
2023-11-08T17:38:47.349Z,101497.28
2023-11-08T17:41:15.524Z,101502.53
2023-11-08T17:43:43.069Z,101493.47
2023-11-08T17:46:10.828Z,101505.06
2023-11-08T17:48:38.364Z,101504.97
2023-11-08T17:51:06.095Z,101496.94
2023-11-08T17:53:34.871Z,101502.16
2023-11-08T17:56:04.131Z,101506.56
2023-11-08T17:58:31.808Z,101503.88
2023-11-08T18:00:59.496Z,101510.97
2023-11-08T18:03:28.489Z,101510.97
2023-11-08T18:06:00.682Z,101514.63
2023-11-08T18:08:28.260Z,101515.47
2023-11-08T18:10:55.734Z,101516.34
2023-11-08T18:13:23.277Z,101526.09
2023-11-08T18:15:50.717Z,101523.44
2023-11-08T18:18:19.894Z,101523.44
2023-11-08T18:20:47.192Z,101521.47
2023-11-08T18:23:14.613Z,101525.13
2023-11-08T18:25:42.229Z,101521.47
2023-11-08T18:28:09.787Z,101523.28
2023-11-08T18:30:37.515Z,101525.97
2023-11-08T18:33:05.154Z,101513.53
2023-11-08T18:35:32.729Z,101526.84
2023-11-08T18:38:00.206Z,101519.75
2023-11-08T18:40:27.540Z,101521.59
2023-11-08T18:42:54.917Z,101521.47
2023-11-08T18:45:22.347Z,101522.44
2023-11-08T18:47:49.752Z,101522.44
2023-11-08T18:50:17.399Z,101525.97
2023-11-08T18:52:45.130Z,101519.75
2023-11-08T18:55:12.696Z,101522.44
2023-11-08T18:57:40.344Z,101514.38
2023-11-08T19:00:12.244Z,101518.91
2023-11-08T19:02:41.150Z,101514.38
2023-11-08T19:05:09.183Z,101519.75
2023-11-08T19:07:36.746Z,101522.56
2023-11-08T19:10:05.309Z,101524.28
2023-11-08T19:12:33.451Z,101512.69
2023-11-08T19:15:00.877Z,101519.75
2023-11-08T19:17:28.186Z,101515.25
2023-11-08T19:19:55.504Z,101509.88
2023-11-08T19:22:22.943Z,101513.53
2023-11-08T19:24:50.338Z,101517.06
2023-11-08T19:27:19.572Z,101514.38
2023-11-08T19:29:47.675Z,101527.81
2023-11-08T19:32:15.054Z,101522.44
2023-11-08T19:34:44.873Z,101516.22
2023-11-08T19:37:12.262Z,101525.97
2023-11-08T19:39:39.760Z,101533.06
2023-11-08T19:42:07.411Z,101535.75
2023-11-08T19:44:34.661Z,101540.16
2023-11-08T19:47:02.035Z,101543.81
2023-11-08T19:49:30.222Z,101551.75
2023-11-08T19:51:57.793Z,101557.13
2023-11-08T19:54:25.176Z,101561.66
2023-11-08T19:56:52.433Z,101555.28
2023-11-08T19:59:19.695Z,101564.22
2023-11-08T20:01:47.517Z,101567.03
2023-11-08T20:04:14.867Z,101565.19
2023-11-08T20:06:42.340Z,101565.06
2023-11-08T20:09:09.661Z,101577.63
2023-11-08T20:11:37.807Z,101575.81
2023-11-08T20:14:06.287Z,101582.03
2023-11-08T20:16:33.737Z,101582.03
2023-11-08T20:19:01.106Z,101583.00
2023-11-08T20:21:28.422Z,101576.66
2023-11-08T20:23:56.844Z,101580.31
2023-11-08T20:26:25.708Z,101575.94
2023-11-08T20:28:53.220Z,101571.41
2023-11-08T20:31:23.479Z,101571.41
2023-11-08T20:33:51.904Z,101570.44
2023-11-08T20:36:21.497Z,101580.31
2023-11-08T20:38:49.477Z,101577.63
2023-11-08T20:41:20.984Z,101578.41
2023-11-08T20:43:48.959Z,101585.56
2023-11-08T20:46:18.767Z,101579.34
2023-11-08T20:48:50.341Z,101581.06
2023-11-08T20:51:18.640Z,101582.03
2023-11-08T20:53:47.334Z,101592.69
2023-11-08T20:56:15.626Z,101586.44
2023-11-08T20:58:43.927Z,101590.84
2023-11-08T21:01:12.396Z,101582.78
2023-11-08T21:03:40.933Z,101589.00
2023-11-08T21:06:08.486Z,101588.03
2023-11-08T21:08:36.392Z,101583.50
2023-11-08T21:11:04.699Z,101588.88
2023-11-08T21:13:32.139Z,101586.94
2023-11-08T21:15:59.509Z,101591.34
2023-11-08T21:18:26.873Z,101585.97
2023-11-08T21:20:54.258Z,101587.69
2023-11-08T21:23:22.920Z,101578.72
2023-11-08T21:25:59.464Z,101585.00
2023-11-08T21:28:28.303Z,101576.94
2023-11-08T21:30:55.852Z,101566.19
2023-11-08T21:33:23.734Z,101572.34
2023-11-08T21:35:51.518Z,101573.34
2023-11-08T21:38:19.181Z,101568.81
2023-11-08T21:40:48.345Z,101584.06
2023-11-08T21:43:16.090Z,101582.25
2023-11-08T21:45:46.396Z,101574.19
2023-11-08T21:48:13.692Z,101586.75
2023-11-08T21:50:41.161Z,101588.47
2023-11-08T21:53:08.550Z,101584.06
2023-11-08T21:55:36.655Z,101577.72
2023-11-08T21:58:04.315Z,101575.91
2023-11-08T22:00:31.725Z,101583.94
2023-11-08T22:02:59.704Z,101573.22
2023-11-08T22:05:29.139Z,101570.38
2023-11-08T22:07:56.544Z,101564.16
2023-11-08T22:10:23.868Z,101558.78
2023-11-08T22:12:51.998Z,101561.63
2023-11-08T22:15:20.329Z,101554.41
2023-11-08T22:17:47.652Z,101559.78
2023-11-08T22:20:15.111Z,101557.09
2023-11-08T22:22:42.576Z,101555.38
2023-11-08T22:25:10.545Z,101556.25
2023-11-08T22:27:38.031Z,101561.63
2023-11-08T22:30:07.312Z,101563.44
2023-11-08T22:32:34.697Z,101561.63
2023-11-08T22:35:02.046Z,101557.22
2023-11-08T22:37:29.385Z,101567.84
2023-11-08T22:39:56.740Z,101557.22
2023-11-08T22:42:23.999Z,101561.69
2023-11-08T22:44:51.253Z,101557.22
2023-11-08T22:47:18.822Z,101557.22
2023-11-08T22:49:46.522Z,101560.75
2023-11-08T22:52:13.889Z,101549.22
2023-11-08T22:54:41.258Z,101557.22
2023-11-08T22:57:08.882Z,101551.91
2023-11-08T22:59:36.174Z,101556.44
2023-11-08T23:02:03.509Z,101555.56
2023-11-08T23:04:30.828Z,101547.53
2023-11-08T23:06:59.021Z,101548.50
2023-11-08T23:09:26.356Z,101544.06
2023-11-08T23:11:55.893Z,101537.75
2023-11-08T23:14:23.185Z,101536.03
2023-11-08T23:16:51.790Z,101536.03
2023-11-08T23:19:19.284Z,101528.09
2023-11-08T23:21:46.686Z,101517.34
2023-11-08T23:24:14.706Z,101520.03
2023-11-08T23:26:42.421Z,101511.97
2023-11-08T23:29:11.111Z,101518.31
2023-11-08T23:31:41.038Z,101525.41
2023-11-08T23:34:10.971Z,101522.00
2023-11-08T23:36:38.362Z,101516.50
2023-11-08T23:39:06.936Z,101509.41
2023-11-08T23:41:36.006Z,101511.25
2023-11-08T23:44:04.218Z,101520.16
2023-11-08T23:46:31.751Z,101514.78
2023-11-08T23:48:59.270Z,101515.66
2023-11-08T23:51:26.660Z,101508.31
2023-11-08T23:53:54.378Z,101502.94
2023-11-08T23:56:21.640Z,101504.69
2023-11-08T23:58:48.917Z,101511.97
